Time;durP1;ratioP1;P1;durP2;ratioP2;P2;SDS_P1;SDS_P2;PMS_P1;PMS_P2;Temp;Humidity;BMP_temperature;BMP_pressure;BME280_temperature;BME280_humidity;BME280_pressure;Samples;Min_cycle;Max_cycle;Signal;HPM_P1;HPM_P2
2022/08/15 00:00:52;;;;;;;8.43;7.57;;;21.90;99.90;;;;;;5074264;28;20052;-71
2022/08/15 00:03:24;;;;;;;9.20;7.95;;;21.90;99.90;;;;;;5062572;28;20146;-71
2022/08/15 00:05:50;;;;;;;10.02;7.50;;;21.90;99.90;;;;;;5067231;28;20040;-71
2022/08/15 00:08:17;;;;;;;8.10;7.22;;;21.90;99.90;;;;;;5073754;28;20055;-70
2022/08/15 00:10:44;;;;;;;8.10;7.38;;;21.90;99.90;;;;;;5061833;28;20032;-71
2022/08/15 00:13:14;;;;;;;9.18;7.70;;;21.80;99.90;;;;;;5070224;28;20048;-71
2022/08/15 00:15:41;;;;;;;8.77;7.68;;;21.80;99.90;;;;;;5084090;28;20044;-70
2022/08/15 00:18:06;;;;;;;9.20;7.45;;;21.80;99.90;;;;;;5086817;28;20036;-70
2022/08/15 00:20:37;;;;;;;11.30;7.80;;;21.80;99.90;;;;;;5074760;28;20451;-71
2022/08/15 00:23:06;;;;;;;9.80;7.88;;;21.80;99.90;;;;;;5073997;28;20450;-71
2022/08/15 00:25:32;;;;;;;9.60;8.27;;;21.80;99.90;;;;;;5090849;28;20122;-71
2022/08/15 00:27:57;;;;;;;8.70;7.70;;;21.80;99.90;;;;;;5071348;28;20506;-71
2022/08/15 00:30:24;;;;;;;9.13;7.53;;;21.80;99.90;;;;;;5051353;28;20398;-71
2022/08/15 00:32:57;;;;;;;11.50;7.70;;;21.70;99.90;;;;;;5065925;28;20045;-71
2022/08/15 00:35:36;;;;;;;11.52;8.10;;;21.80;99.90;;;;;;5067789;28;20032;-71
2022/08/15 00:38:22;;;;;;;8.85;7.50;;;21.80;99.90;;;;;;5064500;28;20036;-71
2022/08/15 00:43:43;;;;;;;9.52;7.18;;;21.80;99.90;;;;;;5085893;28;20044;-71
2022/08/15 00:46:11;;;;;;;12.75;7.43;;;21.90;99.90;;;;;;5054816;28;20102;-71
2022/08/15 00:48:42;;;;;;;8.52;7.68;;;21.90;99.90;;;;;;5071604;28;20506;-71
2022/08/15 00:51:13;;;;;;;11.40;8.25;;;21.80;99.90;;;;;;5060222;28;20040;-70
2022/08/15 00:53:42;;;;;;;15.43;7.97;;;21.80;99.90;;;;;;5074183;28;20059;-70
2022/08/15 00:56:09;;;;;;;10.70;8.20;;;21.80;99.90;;;;;;5090812;28;20047;-71
2022/08/15 00:58:36;;;;;;;9.48;8.40;;;21.80;99.90;;;;;;5059899;28;20131;-71
2022/08/15 01:01:03;;;;;;;11.93;8.52;;;21.80;99.90;;;;;;5073787;28;20036;-71
2022/08/15 01:03:33;;;;;;;9.25;8.35;;;21.80;99.90;;;;;;5060219;28;20533;-71
2022/08/15 01:06:01;;;;;;;9.50;8.23;;;21.80;99.90;;;;;;5083928;28;20047;-71
2022/08/15 01:08:30;;;;;;;9.25;8.35;;;21.90;99.90;;;;;;5072569;28;20040;-71
2022/08/15 01:10:59;;;;;;;9.20;8.30;;;21.90;99.90;;;;;;5073296;28;20119;-71
2022/08/15 01:13:25;;;;;;;10.43;8.60;;;21.80;99.90;;;;;;5058878;28;20050;-71
2022/08/15 01:15:51;;;;;;;10.57;8.70;;;21.90;99.90;;;;;;5056579;28;20037;-71
2022/08/15 01:18:18;;;;;;;9.95;8.70;;;21.90;99.90;;;;;;5070993;28;20040;-71
2022/08/15 01:20:44;;;;;;;9.23;8.30;;;22.00;99.90;;;;;;5072310;28;20048;-71
2022/08/15 01:23:31;;;;;;;13.10;8.23;;;22.00;99.90;;;;;;5068462;28;20044;-70
2022/08/15 01:26:04;;;;;;;10.20;8.70;;;22.10;99.90;;;;;;5087744;28;20089;-71
2022/08/15 01:28:40;;;;;;;8.15;7.20;;;22.10;99.90;;;;;;5090408;28;20058;-71
2022/08/15 01:31:13;;;;;;;9.00;7.40;;;22.10;99.90;;;;;;5071110;28;20039;-71
2022/08/15 01:33:40;;;;;;;;;;;22.10;99.90;;;;;;5082440;28;20044;-71
2022/08/15 01:36:06;;;;;;;9.88;7.15;;;22.10;99.90;;;;;;5076324;28;19916;-71
2022/08/15 01:38:36;;;;;;;7.88;7.07;;;22.00;99.90;;;;;;5036495;28;20036;-71
2022/08/15 01:41:21;;;;;;;7.75;6.85;;;22.00;99.90;;;;;;5071211;28;20048;-71
2022/08/15 01:44:19;;;;;;;8.15;7.05;;;22.00;99.90;;;;;;5073505;28;20123;-71
2022/08/15 01:47:29;;;;;;;8.73;7.88;;;22.00;99.90;;;;;;5046378;28;20055;-71
2022/08/15 01:50:02;;;;;;;9.35;8.10;;;21.90;99.90;;;;;;5057806;28;20048;-71
2022/08/15 01:52:43;;;;;;;11.63;7.88;;;21.90;99.90;;;;;;5060246;28;20430;-71
2022/08/15 01:55:09;;;;;;;9.13;8.15;;;21.90;99.90;;;;;;5055175;28;20143;-71
2022/08/15 01:57:35;;;;;;;8.98;8.07;;;21.90;99.90;;;;;;5066894;28;20082;-71
2022/08/15 02:00:01;;;;;;;11.25;8.77;;;21.90;99.90;;;;;;5065315;28;20036;-71
2022/08/15 02:02:27;;;;;;;9.95;8.75;;;21.80;99.90;;;;;;5061294;28;20052;-71
2022/08/15 02:04:54;;;;;;;9.20;8.27;;;21.80;99.90;;;;;;5091357;28;20602;-71
2022/08/15 02:07:28;;;;;;;9.60;8.05;;;21.80;99.90;;;;;;5066328;28;20391;-71
2022/08/15 02:09:55;;;;;;;10.80;7.90;;;21.80;99.90;;;;;;5075400;28;20397;-70
2022/08/15 02:12:27;;;;;;;9.70;7.95;;;21.80;99.90;;;;;;5082046;28;20376;-71
2022/08/15 02:14:53;;;;;;;8.65;7.85;;;21.80;99.90;;;;;;5070952;28;20048;-71
2022/08/15 02:17:19;;;;;;;7.88;7.03;;;21.80;99.90;;;;;;5087659;28;20028;-71
2022/08/15 02:19:48;;;;;;;9.00;7.15;;;21.80;99.90;;;;;;5081990;28;20031;-71
2022/08/15 02:22:15;;;;;;;7.72;7.00;;;21.80;99.90;;;;;;5085430;28;20481;-71
2022/08/15 02:24:41;;;;;;;11.25;7.15;;;21.80;99.90;;;;;;5090643;28;20524;-71
2022/08/15 02:27:08;;;;;;;9.20;7.28;;;21.80;99.90;;;;;;5106708;28;20055;-71
2022/08/15 02:29:35;;;;;;;9.45;7.22;;;21.70;99.90;;;;;;5077422;28;20491;-71
2022/08/15 02:32:27;;;;;;;9.77;8.15;;;21.70;99.90;;;;;;5089357;28;20044;-71
2022/08/15 02:34:53;;;;;;;9.95;7.68;;;21.70;99.90;;;;;;5086092;28;20063;-71
2022/08/15 02:37:19;;;;;;;8.15;6.93;;;21.70;99.90;;;;;;5087177;28;20482;-71
2022/08/15 02:39:51;;;;;;;9.73;7.20;;;21.70;99.90;;;;;;5096708;28;20490;-71
2022/08/15 02:42:17;;;;;;;7.90;7.10;;;21.70;99.90;;;;;;5096688;28;20528;-70
2022/08/15 02:44:43;;;;;;;8.52;7.05;;;21.60;99.90;;;;;;5079131;28;20494;-70
2022/08/15 02:47:14;;;;;;;7.88;7.07;;;21.60;99.90;;;;;;5084054;28;20135;-71
2022/08/15 02:49:41;;;;;;;8.18;7.47;;;21.60;99.90;;;;;;5079674;28;20086;-71
2022/08/15 02:52:07;;;;;;;8.05;7.13;;;21.60;99.90;;;;;;5085205;28;20283;-71
2022/08/15 02:54:33;;;;;;;7.35;6.65;;;21.60;99.90;;;;;;5077742;28;20490;-71
2022/08/15 02:56:59;;;;;;;7.82;7.13;;;21.50;99.90;;;;;;5096646;28;20051;-71
2022/08/15 02:59:24;;;;;;;8.38;7.32;;;21.50;99.90;;;;;;5092121;28;20047;-71
2022/08/15 03:01:50;;;;;;;9.00;6.60;;;21.50;99.90;;;;;;5079218;28;20498;-71
2022/08/15 03:04:21;;;;;;;8.57;7.50;;;21.50;99.90;;;;;;5108517;28;20050;-70
2022/08/15 03:06:47;;;;;;;8.48;7.10;;;21.40;99.90;;;;;;5084522;28;20044;-71
2022/08/15 03:09:14;;;;;;;7.57;6.93;;;21.30;99.90;;;;;;5089699;28;20040;-71
2022/08/15 03:11:42;;;;;;;7.40;6.70;;;21.30;99.90;;;;;;5076044;28;20089;-71
2022/08/15 03:14:11;;;;;;;7.38;6.75;;;21.30;99.90;;;;;;5089077;28;20510;-71
2022/08/15 03:16:43;;;;;;;7.75;6.93;;;21.20;99.90;;;;;;5088660;28;20478;-71
2022/08/15 03:19:10;;;;;;;;;;;21.20;99.90;;;;;;5094775;28;20045;-71
2022/08/15 03:21:36;;;;;;;8.05;7.25;;;21.20;99.90;;;;;;5089461;28;20348;-70
2022/08/15 03:24:03;;;;;;;10.05;7.20;;;21.10;99.90;;;;;;5083748;28;20035;-71
2022/08/15 03:26:30;;;;;;;8.13;6.75;;;21.10;99.90;;;;;;5079795;28;20052;-71
2022/08/15 03:28:56;;;;;;;7.88;7.10;;;21.00;99.90;;;;;;5089192;28;20040;-71
2022/08/15 03:31:22;;;;;;;7.90;6.53;;;21.00;99.90;;;;;;5087306;28;20075;-71
2022/08/15 03:33:48;;;;;;;8.00;7.20;;;20.90;99.90;;;;;;5091100;28;20082;-71
2022/08/15 03:36:19;;;;;;;7.40;6.70;;;20.80;99.90;;;;;;5077054;28;20040;-72
2022/08/15 03:38:45;;;;;;;8.27;7.28;;;20.80;99.90;;;;;;5093840;28;20039;-72
2022/08/15 03:41:13;;;;;;;8.32;7.40;;;20.80;99.90;;;;;;5084218;28;20040;-72
2022/08/15 03:43:40;;;;;;;8.82;7.93;;;20.80;99.90;;;;;;5093390;28;20493;-72
2022/08/15 03:46:08;;;;;;;9.45;8.55;;;20.70;99.90;;;;;;5095681;28;20046;-72
2022/08/15 03:48:47;;;;;;;10.18;8.13;;;20.70;99.90;;;;;;5095113;28;20043;-72
2022/08/15 03:51:15;;;;;;;9.02;7.82;;;20.70;99.90;;;;;;5095599;28;20122;-72
2022/08/15 03:53:46;;;;;;;9.07;8.18;;;20.60;99.90;;;;;;5076519;28;20115;-72
2022/08/15 03:56:15;;;;;;;11.67;8.33;;;20.60;99.90;;;;;;5088757;28;20035;-72
2022/08/15 03:58:42;;;;;;;8.60;7.80;;;20.60;99.90;;;;;;5074534;28;20169;-72
2022/08/15 04:01:17;;;;;;;11.88;8.38;;;20.50;99.90;;;;;;5075681;28;20123;-72
2022/08/15 04:03:48;;;;;;;12.80;8.05;;;20.50;99.90;;;;;;5107049;28;20050;-72
2022/08/15 04:06:16;;;;;;;9.80;7.95;;;20.50;99.90;;;;;;5095463;28;20073;-72
2022/08/15 04:08:46;;;;;;;9.93;7.80;;;20.40;99.90;;;;;;5094733;28;20041;-72
2022/08/15 04:11:14;;;;;;;10.07;8.55;;;20.40;99.90;;;;;;5081787;28;20040;-72
2022/08/15 04:13:39;;;;;;;14.73;8.43;;;20.30;99.90;;;;;;5095233;28;20431;-72
2022/08/15 04:16:07;;;;;;;12.57;8.50;;;20.30;99.90;;;;;;5081254;28;20032;-72
2022/08/15 04:18:34;;;;;;;10.30;8.57;;;20.30;99.90;;;;;;5079595;28;20068;-72
2022/08/15 04:21:02;;;;;;;9.65;8.65;;;20.20;99.90;;;;;;5069631;28;20048;-72
2022/08/15 04:23:29;;;;;;;12.40;9.32;;;20.30;99.90;;;;;;5064197;28;20051;-72
2022/08/15 04:25:55;;;;;;;10.02;9.02;;;20.20;99.90;;;;;;5086122;28;20533;-72
2022/08/15 04:28:23;;;;;;;10.13;8.65;;;20.20;99.90;;;;;;5066380;28;20183;-72
2022/08/15 04:30:49;;;;;;;14.07;9.85;;;20.20;99.90;;;;;;5069185;28;20028;-72
2022/08/15 04:33:24;;;;;;;9.55;7.97;;;20.30;99.90;;;;;;5065577;28;20560;-72
2022/08/15 04:35:56;;;;;;;8.93;8.02;;;20.30;99.90;;;;;;5074296;28;20043;-72
2022/08/15 04:38:22;;;;;;;8.82;8.00;;;20.20;99.90;;;;;;5078174;28;20035;-72
2022/08/15 04:40:49;;;;;;;9.27;8.05;;;20.20;99.90;;;;;;5060676;28;20040;-72
2022/08/15 04:43:17;;;;;;;8.55;7.70;;;20.10;99.90;;;;;;5061734;28;20097;-72
2022/08/15 04:45:43;;;;;;;8.88;7.50;;;20.10;99.90;;;;;;5074130;28;20048;-72
2022/08/15 04:48:14;;;;;;;10.07;8.63;;;20.10;99.90;;;;;;5061370;28;20067;-71
2022/08/15 04:50:44;;;;;;;10.07;8.95;;;20.10;99.90;;;;;;5066632;28;20052;-71
2022/08/15 04:53:11;;;;;;;11.35;9.30;;;20.10;99.90;;;;;;5067506;28;20077;-71
2022/08/15 04:55:41;;;;;;;11.40;10.40;;;20.10;99.90;;;;;;5073989;28;20048;-71
2022/08/15 04:58:09;;;;;;;11.52;10.30;;;20.10;99.90;;;;;;5072741;28;20036;-71
2022/08/15 05:00:40;;;;;;;10.48;9.38;;;20.10;99.90;;;;;;5058232;28;20372;-71
2022/08/15 05:03:19;;;;;;;10.57;9.50;;;20.20;99.90;;;;;;5073178;28;20036;-71
2022/08/15 05:05:55;;;;;;;10.05;9.07;;;20.20;99.90;;;;;;5070924;28;20092;-71
2022/08/15 05:08:25;;;;;;;15.93;9.65;;;20.30;99.90;;;;;;5073707;28;20119;-71
2022/08/15 05:11:07;;;;;;;10.38;9.48;;;20.30;99.90;;;;;;5072874;28;20036;-72
2022/08/15 05:13:35;;;;;;;10.68;9.65;;;20.30;99.90;;;;;;5058843;28;20040;-72
2022/08/15 05:16:01;;;;;;;12.15;10.00;;;20.30;99.90;;;;;;5072152;28;20555;-72
2022/08/15 05:18:28;;;;;;;10.82;9.80;;;20.30;99.90;;;;;;5071944;28;20035;-72
2022/08/15 05:20:55;;;;;;;10.77;9.75;;;20.40;99.90;;;;;;5052186;28;20171;-72
2022/08/15 05:23:23;;;;;;;11.77;8.32;;;20.40;99.90;;;;;;5072837;28;20052;-72
2022/08/15 05:25:57;;;;;;;9.85;8.93;;;20.40;99.90;;;;;;5066289;28;20059;-72
2022/08/15 05:28:24;;;;;;;8.98;8.07;;;20.50;99.90;;;;;;5058673;28;20090;-72
2022/08/15 05:30:52;;;;;;;9.25;8.23;;;20.50;99.90;;;;;;5053064;28;20044;-72
2022/08/15 05:33:22;;;;;;;10.93;8.05;;;20.50;99.90;;;;;;5067111;28;20130;-72
2022/08/15 05:35:53;;;;;;;9.35;8.35;;;20.50;99.90;;;;;;5061734;28;20052;-72
2022/08/15 05:38:22;;;;;;;11.47;8.97;;;20.60;99.90;;;;;;5061051;28;20043;-72
2022/08/15 05:40:51;;;;;;;12.13;9.25;;;20.60;99.90;;;;;;5080031;28;20098;-72
2022/08/15 05:43:26;;;;;;;11.35;10.10;;;20.70;99.90;;;;;;5078618;28;20078;-72
2022/08/15 05:46:03;;;;;;;10.10;9.10;;;20.80;99.90;;;;;;5080698;28;20040;-72
2022/08/15 05:48:32;;;;;;;9.13;8.32;;;20.80;99.90;;;;;;5079881;28;20048;-72
2022/08/15 05:51:17;;;;;;;9.80;8.88;;;20.90;99.90;;;;;;5070116;28;20115;-72
2022/08/15 05:53:49;;;;;;;9.43;8.52;;;20.90;99.90;;;;;;5083961;28;20067;-72
2022/08/15 05:56:37;;;;;;;12.80;9.98;;;21.00;99.90;;;;;;5066723;28;20044;-72
2022/08/15 05:59:09;;;;;;;14.75;8.88;;;21.10;99.90;;;;;;5069921;28;20040;-72
2022/08/15 06:01:44;;;;;;;12.65;8.48;;;21.10;99.90;;;;;;5091052;28;20075;-72
2022/08/15 06:04:42;;;;;;;9.20;8.27;;;21.30;99.90;;;;;;5079894;28;20498;-72
2022/08/15 06:07:13;;;;;;;12.60;10.07;;;21.40;99.90;;;;;;5018056;28;20053;-72
2022/08/15 06:09:48;;;;;;;10.05;9.05;;;21.50;99.90;;;;;;5074527;28;20044;-72
2022/08/15 06:12:40;;;;;;;13.73;9.13;;;21.50;99.90;;;;;;5074198;28;20383;-71
2022/08/15 06:15:46;;;;;;;9.50;8.55;;;21.50;99.90;;;;;;5077037;28;20449;-72
2022/08/15 06:18:14;;;;;;;9.70;8.70;;;21.60;99.90;;;;;;5069836;28;20398;-72
2022/08/15 06:21:15;;;;;;;25.58;9.15;;;21.70;99.90;;;;;;5080567;28;20036;-72
2022/08/15 06:23:47;;;;;;;14.90;9.15;;;21.70;99.90;;;;;;5075838;28;20410;-72
2022/08/15 06:26:28;;;;;;;13.75;9.43;;;21.70;99.90;;;;;;5079647;28;20423;-72
2022/08/15 06:29:01;;;;;;;10.18;9.25;;;21.80;99.90;;;;;;5076522;28;20425;-72
2022/08/15 06:32:03;;;;;;;10.38;8.98;;;21.80;99.90;;;;;;5067843;28;20040;-72
2022/08/15 06:35:02;;;;;;;11.82;8.27;;;21.90;99.90;;;;;;5069611;28;20482;-72
2022/08/15 06:37:34;;;;;;;18.85;10.13;;;22.00;99.90;;;;;;5067326;28;20486;-72
2022/08/15 06:40:09;;;;;;;10.27;9.27;;;22.00;99.90;;;;;;5107060;28;20574;-72
2022/08/15 06:42:41;;;;;;;11.23;8.48;;;22.00;99.90;;;;;;5081214;28;20038;-72
2022/08/15 06:45:21;;;;;;;9.95;8.27;;;22.10;99.90;;;;;;5093309;28;20097;-72
2022/08/15 06:47:51;;;;;;;12.30;10.02;;;22.20;99.90;;;;;;5078650;28;20059;-72
2022/08/15 06:50:44;;;;;;;11.07;10.05;;;22.20;99.90;;;;;;5059057;28;20048;-72
2022/08/15 06:53:14;;;;;;;12.30;11.13;;;22.30;99.90;;;;;;5049321;28;20067;-72
2022/08/15 06:56:18;;;;;;;11.98;10.70;;;22.30;99.90;;;;;;5067126;28;20044;-72
2022/08/15 06:59:22;;;;;;;14.77;8.98;;;22.40;99.90;;;;;;5056937;28;20141;-72
2022/08/15 07:01:58;;;;;;;11.30;9.27;;;22.50;99.90;;;;;;5075845;28;20055;-72
2022/08/15 07:04:45;;;;;;;13.00;10.35;;;22.60;99.90;;;;;;5070833;28;20048;-72
2022/08/15 07:07:24;;;;;;;9.75;8.95;;;22.70;99.90;;;;;;5063872;28;20044;-72
2022/08/15 07:09:53;;;;;;;10.25;8.98;;;22.90;99.90;;;;;;5073295;28;20048;-72
2022/08/15 07:12:44;;;;;;;10.90;9.90;;;23.00;99.90;;;;;;5055908;28;20051;-72
2022/08/15 07:15:18;;;;;;;12.55;11.10;;;23.20;99.90;;;;;;5065427;28;20040;-72
2022/08/15 07:18:07;;;;;;;12.45;11.10;;;23.30;99.90;;;;;;5074998;28;20046;-72
2022/08/15 07:20:34;;;;;;;11.50;9.48;;;23.30;99.90;;;;;;5064639;28;20044;-72
2022/08/15 07:23:13;;;;;;;9.57;8.60;;;23.40;99.90;;;;;;5068847;28;20066;-72
2022/08/15 07:25:46;;;;;;;9.52;8.57;;;23.60;99.90;;;;;;5074164;28;20036;-72
2022/08/15 07:28:16;;;;;;;10.93;9.77;;;23.70;99.90;;;;;;5060349;28;20036;-72
2022/08/15 07:30:51;;;;;;;10.80;9.32;;;23.70;99.90;;;;;;5091274;28;20406;-72
2022/08/15 07:33:33;;;;;;;10.20;9.18;;;23.80;99.90;;;;;;5057554;28;20043;-72
2022/08/15 07:36:04;;;;;;;10.48;9.38;;;23.80;99.90;;;;;;5066223;28;20111;-72
2022/08/15 07:38:32;;;;;;;10.60;9.52;;;23.90;99.90;;;;;;5063009;28;20093;-72
2022/08/15 07:41:26;;;;;;;10.00;9.13;;;23.90;99.90;;;;;;5057888;28;20048;-72
2022/08/15 07:44:00;;;;;;;10.05;8.60;;;24.00;99.90;;;;;;5069214;28;20093;-72
2022/08/15 07:46:39;;;;;;;14.82;9.05;;;24.20;99.90;;;;;;5080327;28;20044;-72
2022/08/15 07:49:16;;;;;;;8.95;8.05;;;24.30;99.90;;;;;;5058110;28;20036;-72
2022/08/15 07:51:48;;;;;;;10.25;9.27;;;24.40;99.90;;;;;;5055565;28;20044;-72
2022/08/15 07:54:42;;;;;;;11.02;8.80;;;24.50;99.90;;;;;;5073537;28;20043;-72
2022/08/15 07:57:24;;;;;;;11.88;8.85;;;24.60;99.90;;;;;;5060011;28;20138;-72
2022/08/15 08:00:14;;;;;;;9.55;8.55;;;24.60;99.90;;;;;;5064492;28;20079;-72
2022/08/15 08:02:53;;;;;;;12.88;9.65;;;24.70;99.90;;;;;;5058063;28;20051;-73
2022/08/15 08:05:21;;;;;;;11.93;9.73;;;24.70;99.90;;;;;;5071923;28;20143;-72
2022/08/15 08:07:50;;;;;;;11.20;9.30;;;24.80;99.90;;;;;;5057899;28;20041;-72
2022/08/15 08:10:38;;;;;;;13.43;9.73;;;24.80;99.90;;;;;;5071854;28;20044;-72
2022/08/15 08:13:03;;;;;;;11.10;9.07;;;24.80;99.90;;;;;;5062392;28;20123;-72
2022/08/15 08:15:38;;;;;;;11.73;10.52;;;24.90;99.90;;;;;;5074665;28;20143;-72
2022/08/15 08:18:09;;;;;;;11.38;10.15;;;24.90;99.90;;;;;;5072719;28;20039;-72
2022/08/15 08:20:51;;;;;;;12.13;10.95;;;25.00;99.90;;;;;;5080980;28;20041;-72
2022/08/15 08:23:27;;;;;;;12.43;10.18;;;25.00;99.90;;;;;;5091134;28;20489;-72
2022/08/15 08:26:31;;;;;;;12.05;10.70;;;25.30;99.90;;;;;;5087322;28;20036;-72
2022/08/15 08:29:24;;;;;;;15.85;10.20;;;25.40;99.90;;;;;;5063340;28;20048;-72
2022/08/15 08:32:20;;;;;;;10.73;9.38;;;25.50;99.90;;;;;;5075270;28;20044;-72
2022/08/15 08:35:40;;;;;;;14.88;10.57;;;25.60;99.90;;;;;;5094729;28;20040;-72
2022/08/15 08:38:25;;;;;;;11.52;10.00;;;25.70;99.90;;;;;;5002757;28;20096;-72
2022/08/15 08:41:25;;;;;;;11.90;10.70;;;25.80;99.90;;;;;;5085492;28;20052;-72
2022/08/15 08:44:37;;;;;;;12.40;10.93;;;26.00;99.90;;;;;;5087611;28;20035;-72
2022/08/15 08:47:18;;;;;;;13.10;11.82;;;26.30;99.90;;;;;;5090839;28;20126;-72
2022/08/15 08:49:59;;;;;;;11.98;10.98;;;26.40;99.90;;;;;;5094124;28;20035;-72
2022/08/15 08:52:52;;;;;;;11.43;10.07;;;26.50;99.90;;;;;;5083314;28;20044;-72
2022/08/15 08:55:31;;;;;;;14.05;10.05;;;26.60;99.90;;;;;;5081487;28;20032;-72
2022/08/15 08:58:03;;;;;;;11.30;10.05;;;26.70;99.90;;;;;;5097017;28;20481;-72
2022/08/15 09:00:50;;;;;;;12.13;11.00;;;26.70;99.90;;;;;;5098437;28;20046;-72
2022/08/15 09:03:27;;;;;;;11.57;10.38;;;26.70;99.90;;;;;;5094106;28;20151;-72
2022/08/15 09:05:58;;;;;;;12.75;9.60;;;26.80;99.90;;;;;;5094121;28;20122;-72
2022/08/15 09:08:51;;;;;;;17.50;9.38;;;26.90;99.90;;;;;;5093622;28;20051;-72
2022/08/15 09:11:19;;;;;;;11.85;10.50;;;27.10;99.90;;;;;;5083522;28;20066;-72
2022/08/15 09:13:46;;;;;;;13.50;10.60;;;27.20;99.90;;;;;;5093733;28;20039;-72
2022/08/15 09:16:30;;;;;;;12.73;10.98;;;27.50;99.90;;;;;;5084278;28;20367;-72
2022/08/15 09:19:17;;;;;;;15.32;11.80;;;27.60;99.90;;;;;;5093580;28;20040;-72
2022/08/15 09:21:44;;;;;;;17.90;13.15;;;27.60;99.90;;;;;;5073497;28;20040;-72
2022/08/15 09:24:11;;;;;;;33.63;13.73;;;27.50;99.90;;;;;;5073166;28;20046;-72
2022/08/15 09:26:55;;;;;;;18.95;12.82;;;27.40;99.90;;;;;;5073435;28;20098;-72
2022/08/15 09:29:27;;;;;;;18.08;12.93;;;27.30;99.90;;;;;;5073456;28;20134;-72
2022/08/15 09:32:13;;;;;;;17.75;12.73;;;27.10;99.90;;;;;;5073208;28;20047;-72
2022/08/15 09:34:48;;;;;;;16.63;12.77;;;27.00;99.90;;;;;;5027602;28;20051;-72
2022/08/15 09:37:24;;;;;;;15.23;12.10;;;26.80;99.90;;;;;;5057060;28;20044;-72
2022/08/15 09:39:55;;;;;;;16.02;13.77;;;26.70;99.90;;;;;;5073331;28;20036;-72
2022/08/15 09:42:40;;;;;;;15.10;13.57;;;26.60;99.90;;;;;;5073429;28;20051;-72
2022/08/15 09:45:34;;;;;;;14.93;13.43;;;26.50;99.90;;;;;;5084985;28;20047;-72
2022/08/15 09:48:00;;;;;;;15.82;13.60;;;26.40;99.90;;;;;;5070468;28;20052;-72
2022/08/15 09:50:32;;;;;;;16.35;13.82;;;26.30;99.90;;;;;;5070572;28;20036;-72
2022/08/15 09:53:10;;;;;;;17.65;13.45;;;26.20;99.90;;;;;;5069604;28;20055;-72
2022/08/15 09:55:44;;;;;;;12.43;10.55;;;26.10;99.90;;;;;;5073526;28;20120;-72
2022/08/15 09:58:26;;;;;;;12.38;9.63;;;26.00;99.90;;;;;;5077922;28;20119;-72
2022/08/15 10:01:10;;;;;;;12.02;9.80;;;26.00;99.90;;;;;;5069387;28;20115;-72
2022/08/15 10:03:44;;;;;;;16.00;10.38;;;26.00;99.90;;;;;;5073155;28;20079;-72
2022/08/15 10:06:17;;;;;;;14.90;13.50;;;26.00;99.90;;;;;;5070868;28;20053;-72
2022/08/15 10:08:52;;;;;;;12.65;9.85;;;26.10;99.90;;;;;;5084409;28;20036;-72
2022/08/15 10:11:32;;;;;;;18.80;11.55;;;26.10;99.90;;;;;;5053180;28;20041;-72
2022/08/15 10:14:06;;;;;;;17.08;15.48;;;26.20;99.90;;;;;;5072692;28;20099;-72
2022/08/15 10:16:40;;;;;;;15.45;13.57;;;26.20;99.90;;;;;;5089929;28;20081;-72
2022/08/15 10:19:26;;;;;;;17.23;15.55;;;26.20;99.90;;;;;;5072744;28;20085;-72
2022/08/15 10:21:52;;;;;;;17.42;14.93;;;26.30;99.90;;;;;;5059581;28;20075;-72
2022/08/15 10:24:23;;;;;;;15.15;13.70;;;26.30;99.90;;;;;;5064464;28;20032;-72
2022/08/15 10:27:07;;;;;;;24.60;16.92;;;26.40;99.90;;;;;;5066867;28;20044;-72
2022/08/15 10:29:35;;;;;;;16.30;14.13;;;26.40;99.90;;;;;;5093875;28;20055;-72
2022/08/15 10:32:02;;;;;;;18.08;14.38;;;26.40;99.90;;;;;;5063084;28;20052;-72
2022/08/15 10:34:38;;;;;;;21.38;14.80;;;26.40;99.90;;;;;;5063323;28;20036;-72
2022/08/15 10:37:16;;;;;;;25.88;13.70;;;26.40;99.90;;;;;;5094798;28;20032;-72
2022/08/15 10:40:06;;;;;;;27.42;15.93;;;26.30;99.90;;;;;;5092875;28;20536;-73
2022/08/15 10:42:50;;;;;;;22.15;17.48;;;26.30;99.90;;;;;;5071197;28;20043;-73
2022/08/15 10:45:36;;;;;;;18.90;16.88;;;26.20;99.90;;;;;;5076785;28;20055;-73
2022/08/15 10:48:08;;;;;;;20.05;17.55;;;26.10;99.90;;;;;;5076332;28;20131;-73
2022/08/15 10:51:01;;;;;;;19.23;16.02;;;26.00;99.90;;;;;;5076278;28;20084;-73
2022/08/15 10:53:39;;;;;;;19.55;16.92;;;26.00;99.90;;;;;;5084665;28;20036;-73
2022/08/15 10:56:16;;;;;;;21.38;17.20;;;25.90;99.90;;;;;;5076281;28;20036;-73
2022/08/15 10:58:43;;;;;;;21.33;17.25;;;26.00;99.90;;;;;;5066724;28;20046;-73
2022/08/15 11:01:17;;;;;;;19.15;16.65;;;26.10;99.90;;;;;;5076284;28;20036;-73
2022/08/15 11:04:01;;;;;;;19.67;17.67;;;26.20;99.90;;;;;;5087393;28;20037;-73
2022/08/15 11:06:27;;;;;;;18.75;16.95;;;26.30;99.90;;;;;;5069833;28;20032;-73
2022/08/15 11:09:07;;;;;;;18.63;16.70;;;26.30;99.90;;;;;;5094110;28;20066;-73
2022/08/15 11:11:50;;;;;;;20.35;16.08;;;26.40;99.90;;;;;;5075850;28;20051;-73
2022/08/15 11:14:19;;;;;;;16.33;14.73;;;26.40;99.90;;;;;;5072857;28;20072;-73
2022/08/15 11:16:51;;;;;;;19.50;16.33;;;26.40;99.90;;;;;;5060257;28;20155;-73
2022/08/15 11:19:38;;;;;;;16.63;15.02;;;26.40;99.90;;;;;;5075608;28;20047;-73
2022/08/15 11:22:16;;;;;;;17.45;15.18;;;26.70;99.90;;;;;;5096162;28;20051;-73
2022/08/15 11:24:43;;;;;;;18.80;16.80;;;26.80;99.90;;;;;;5065175;28;20046;-72
2022/08/15 11:27:13;;;;;;;18.70;15.65;;;27.10;99.90;;;;;;5084781;28;21073;-73
2022/08/15 11:29:40;;;;;;;20.27;16.20;;;27.50;99.90;;;;;;5073177;28;20043;-73
2022/08/15 11:32:06;;;;;;;18.55;16.10;;;27.60;99.90;;;;;;5070162;28;20049;-73
2022/08/15 11:34:36;;;;;;;19.77;15.77;;;27.70;99.90;;;;;;5072866;28;20044;-73
2022/08/15 11:37:16;;;;;;;16.45;14.85;;;27.70;99.90;;;;;;5073429;28;20075;-73
2022/08/15 11:39:46;;;;;;;17.23;15.18;;;27.90;99.90;;;;;;5071688;28;20112;-73
2022/08/15 11:42:17;;;;;;;17.02;13.90;;;27.80;99.90;;;;;;5081930;28;20467;-73
2022/08/15 11:44:59;;;;;;;16.25;14.57;;;27.80;99.90;;;;;;5091072;28;20111;-73
2022/08/15 11:47:29;;;;;;;17.52;13.93;;;27.90;99.30;;;;;;5055141;28;20086;-73
2022/08/15 11:50:00;;;;;;;13.38;12.00;;;28.10;99.80;;;;;;5091102;28;20036;-73
2022/08/15 11:52:35;;;;;;;12.23;10.93;;;28.00;99.60;;;;;;5080555;28;20066;-73
2022/08/15 11:55:27;;;;;;;13.57;11.85;;;28.00;99.90;;;;;;5061793;28;20040;-72
2022/08/15 11:58:05;;;;;;;21.05;12.13;;;28.10;99.90;;;;;;5083627;28;20032;-73
2022/08/15 12:00:37;;;;;;;12.95;11.23;;;28.10;99.90;;;;;;5088345;28;20037;-73
2022/08/15 12:03:23;;;;;;;11.05;9.90;;;28.40;99.90;;;;;;5093002;28;20044;-73
2022/08/15 12:06:12;;;;;;;19.00;12.48;;;28.70;99.90;;;;;;5069120;28;20040;-72
2022/08/15 12:08:39;;;;;;;14.73;13.23;;;28.90;99.90;;;;;;5073503;28;20142;-72
2022/08/15 12:11:25;;;;;;;15.25;12.15;;;28.80;99.50;;;;;;5055902;28;20072;-73
2022/08/15 12:14:12;;;;;;;12.60;11.30;;;28.70;99.90;;;;;;5068272;28;20052;-73
2022/08/15 12:16:49;;;;;;;15.55;11.50;;;28.70;99.50;;;;;;5089536;28;20039;-72
2022/08/15 12:19:29;;;;;;;13.27;11.88;;;28.60;99.90;;;;;;5070944;28;20048;-72
2022/08/15 12:22:00;;;;;;;13.10;11.73;;;28.50;99.90;;;;;;5066075;28;20051;-73
2022/08/15 12:24:32;;;;;;;18.73;12.88;;;28.50;99.90;;;;;;5077445;28;20037;-73
2022/08/15 12:27:01;;;;;;;16.77;12.05;;;28.40;99.90;;;;;;5061429;28;20061;-73
2022/08/15 12:29:28;;;;;;;12.60;11.02;;;28.30;99.90;;;;;;5060935;28;20048;-73
2022/08/15 12:31:56;;;;;;;20.65;13.65;;;28.20;99.90;;;;;;5060889;28;20047;-72
2022/08/15 12:34:33;;;;;;;15.60;13.73;;;28.00;99.90;;;;;;5074552;28;20128;-73
2022/08/15 12:37:01;;;;;;;19.40;12.48;;;27.80;99.90;;;;;;5074186;28;20051;-73
2022/08/15 12:39:27;;;;;;;16.80;13.05;;;27.80;99.90;;;;;;5072484;28;20115;-73
2022/08/15 12:41:54;;;;;;;19.95;12.68;;;27.60;99.90;;;;;;5074448;28;20135;-72
2022/08/15 12:44:25;;;;;;;12.77;11.55;;;27.70;99.90;;;;;;5076201;28;20040;-73
2022/08/15 12:46:53;;;;;;;13.52;11.88;;;27.80;99.90;;;;;;5063057;28;20127;-72
2022/08/15 12:49:18;;;;;;;13.73;11.13;;;27.90;99.90;;;;;;5074173;28;21549;-73
2022/08/15 12:51:44;;;;;;;15.30;10.68;;;28.00;99.90;;;;;;5092216;28;20048;-72
2022/08/15 12:54:10;;;;;;;10.45;7.90;;;28.00;99.90;;;;;;5090188;28;20075;-72
2022/08/15 12:56:35;;;;;;;11.32;8.32;;;28.00;99.40;;;;;;5079281;28;20456;-72
2022/08/15 12:59:05;;;;;;;8.60;7.80;;;28.00;99.10;;;;;;5091610;28;20044;-72
2022/08/15 13:01:36;;;;;;;18.58;8.40;;;27.80;98.50;;;;;;5092040;28;20078;-73
2022/08/15 13:04:06;;;;;;;16.10;8.90;;;27.80;97.60;;;;;;5071514;28;20080;-73
2022/08/15 13:07:04;;;;;;;13.48;9.45;;;27.70;97.90;;;;;;5073901;28;20044;-72
2022/08/15 13:09:32;;;;;;;11.55;8.88;;;27.50;97.70;;;;;;5059977;28;20131;-72
2022/08/15 13:12:01;;;;;;;9.10;7.85;;;27.50;98.50;;;;;;5083243;28;20159;-72
2022/08/15 13:14:28;;;;;;;10.82;7.70;;;27.50;99.00;;;;;;5084878;28;20040;-73
2022/08/15 13:16:54;;;;;;;13.68;9.57;;;27.60;99.10;;;;;;5072562;28;20048;-72